Latest Coastal Weather Observations for Albion Park

IDN60701

Issued at 4:41 am EST Wednesday 24 May 2017 (issued every 10 minutes, with the page automatically refreshed every 10 minutes)

About coastal observations | Map of coastal stations | Coastal observations for NSW | Marine services | Other Formats
Station Details ID: 068241 Name: WOLLONGONG AIRPORT Lat: -34.56 Lon: 150.79 Height: 8.0 m
Data from the previous 72 hours. | See also: Recent months at Albion Park
Date/Time
EST
Temp
°C
Wind Pressure Rain since
9am
mm
Weather Cloud Vis
km
Sea
Height
m
Swell
Dir  Spd
kts
Gust
kts
hPa Trend Height
m
Period
s
Dir
24/04:30am 14.6 ENE 5 8 1013.2 - 1.0 - Cloudy 10 - - - -
24/04:00am 15.4 NNW 7 11 1013.6 - 0.8 - Partly cloudy 10 - - - -
24/03:31am 13.5 NW 4 7 1014.4 - 0.8 - Partly cloudy 10 - - - -
24/03:30am 13.5 NW 4 7 1014.3 - 0.8 - Partly cloudy 10 - - - -
24/03:13am 13.2 W 9 14 1014.4 - 0.8 - Partly cloudy 5 - - - -
24/03:00am 12.8 WNW 4 5 1013.7 - 0.0 - Cloudy 10 - - - -
24/02:30am 12.8 SE 2 7 1014.0 - 0.0 - Cloudy 10 - - - -
24/02:00am 12.4 N 5 7 1014.5 - 0.0 - Partly cloudy 10 - - - -
24/01:30am 11.0 SW 1 4 1015.1 - 0.0 - Partly cloudy 10 - - - -
24/01:08am 10.8 CALM 0 0 1015.3 - 0.0 - - 10 - - - -
24/01:00am 10.8 SW 1 3 1015.3 - 0.0 - - 10 - - - -
24/12:44am 10.6 SW 2 5 1015.6 - 0.0 - - 5 - - - -
24/12:30am 10.8 CALM 0 0 1015.6 - 0.0 - - 10 - - - -
24/12:00am 10.6 SW 2 4 1016.1 - 0.0 - - 10 - - - -
 
Date/Time
EST
Temp
°C
Wind Pressure Rain since
9am
mm
Weather Cloud Vis
km
Sea
Height
m
Swell
Dir  Spd
kts
Gust
kts
hPa Trend Height
m
Period
s
Dir
23/11:30pm 11.4 SW 1 4 1016.5 - 0.0 - - 10 - - - -
23/11:00pm 11.7 NW 3 5 1016.5 - 0.0 - - 10 - - - -
23/10:30pm 11.7 CALM 0 0 1016.8 - 0.0 - - 10 - - - -
23/10:00pm 12.0 WSW 3 5 1017.0 - 0.0 - - 10 - - - -
23/09:30pm 12.7 WNW 3 4 1017.2 - 0.0 - - 10 - - - -
23/09:00pm 13.0 WNW 3 5 1017.2 - 0.0 - - 10 - - - -
23/08:30pm 13.6 WSW 3 3 1017.2 - 0.0 - - 10 - - - -
23/08:00pm 14.2 W 6 8 1017.3 - 0.0 - - 10 - - - -
23/07:30pm 14.1 WSW 5 7 1017.1 - 0.0 - - 10 - - - -
23/07:00pm 14.7 W 7 8 1017.2 - 0.0 - - 10 - - - -
23/06:30pm 14.0 W 4 5 1017.1 - 0.0 - - 10 - - - -
23/06:00pm 15.7 CALM 0 4 1017.2 - 0.0 - Mostly clear 10 - - - -
23/05:30pm 17.7 CALM 0 3 1017.2 - 0.0 - - 10 - - - -
23/05:00pm 19.0 NW 5 6 1017.1 - 0.0 - - 10 - - - -
23/04:30pm 20.0 NE 8 11 1016.5 - 0.0 - - 10 - - - -
23/04:00pm 20.0 NE 8 11 1016.5 - 0.0 - - 10 - - - -
23/03:30pm 20.9 NE 11 15 1016.3 - 0.0 - - 10 - - - -
23/03:00pm 21.3 ENE 11 15 1016.5 - 0.0 - - 10 - - - -
23/02:30pm 22.5 ENE 9 13 1016.8 - 0.0 - - 10 - - - -
23/02:00pm 23.3 NE 6 9 1016.8 - 0.0 - - 10 - - - -
23/01:30pm 24.0 N 4 5 1017.2 - 0.0 - - 10 - - - -
23/01:00pm 23.6 NW 5 9 1017.5 - 0.0 - - 10 - - - -
23/12:30pm 23.3 NNW 8 11 1018.1 - 0.0 - - 10 - - - -
23/12:00pm 23.0 NNW 8 11 1018.7 - 0.0 - - 10 - - - -
23/11:30am 22.8 NNW 9 13 1019.2 - 0.0 - - 10 - - - -
23/11:00am 22.0 N 11 14 1019.9 - 0.0 - - 10 - - - -
23/10:30am 21.7 N 6 9 1020.3 - 0.0 - - 10 - - - -
23/10:00am 20.5 E 3 5 1020.9 - 0.0 - - 10 - - - -
23/09:30am 19.4 ESE 2 4 1021.4 - 0.0 - - 10 - - - -
23/09:00am 17.6 CALM 0 1 1021.7 - 0.0 - - 10 - - - -
23/08:30am 14.6 CALM 0 0 1021.8 - 0.0 - - 10 - - - -
23/08:00am 12.3 CALM 0 0 1021.7 - 0.0 - - 10 - - - -
23/07:30am 9.8 CALM 0 4 1021.6 - 0.0 - - 10 - - - -
23/07:00am 8.8 WSW 3 4 1021.3 - 0.0 - Partly cloudy 7 - - - -
23/06:44am 9.1 CALM 0 0 1021.1 - 0.0 - - 10 - - - -
23/06:30am 9.0 CALM 0 0 1021.0 - 0.0 - Partly cloudy 2 - - - -
23/06:04am 9.2 SSW 1 4 1021.0 - 0.0 - Partly cloudy 2 - - - -
23/06:00am 9.5 SSW 1 4 1021.0 - 0.0 - - 10 - - - -
23/05:30am 9.5 CALM 0 0 1020.7 - 0.0 - - 10 - - - -
23/05:00am 9.9 CALM 0 0 1020.7 - 0.0 - - 10 - - - -
23/04:30am 10.2 W 1 4 1020.7 - 0.0 - - 7 - - - -
23/04:00am 10.6 W 4 5 1020.8 - 0.0 - - 10 - - - -
23/03:30am 11.0 WNW 5 6 1021.1 - 0.0 - - 10 - - - -
23/03:00am 11.1 SW 1 4 1021.2 - 0.0 - - 10 - - - -
23/02:30am 11.8 NNW 5 5 1021.4 - 0.0 - Partly cloudy 10 - - - -
23/02:00am 12.3 NNE 1 4 1021.7 - 0.0 - Cloudy 10 - - - -
23/01:30am 11.6 W 4 6 1021.9 - 0.0 - Partly cloudy 10 - - - -
23/01:00am 10.9 W 3 4 1022.2 - 0.0 - - 10 - - - -
23/12:30am 11.2 W 1 3 1022.4 - 0.0 - Partly cloudy 10 - - - -
23/12:00am 11.7 CALM 0 0 1022.7 - 0.0 - - 10 - - - -
 
Date/Time
EST
Temp
°C
Wind Pressure Rain since
9am
mm
Weather Cloud Vis
km
Sea
Height
m
Swell
Dir  Spd
kts
Gust
kts
hPa Trend Height
m
Period
s
Dir
22/11:30pm 11.5 W 2 4 1022.8 - 0.0 - - 10 - - - -
22/11:00pm 12.7 W 4 6 1023.0 - 0.0 - - 10 - - - -
22/10:30pm 11.9 SW 3 4 1023.1 - 0.0 - Partly cloudy 10 - - - -
22/10:00pm 12.4 SW 1 3 1023.2 - 0.0 - Partly cloudy 10 - - - -
22/09:30pm 13.0 SW 3 4 1023.2 - 0.0 - Partly cloudy 10 - - - -
22/09:00pm 13.8 CALM 0 0 1023.1 - 0.0 - Cloudy 10 - - - -
22/08:30pm 14.0 W 5 6 1023.1 - 0.0 - Partly cloudy 10 - - - -
22/08:22pm 14.0 W 5 6 1023.1 - 0.0 - Partly cloudy 10 - - - -
22/08:07pm 13.9 W 5 5 1023.0 - 0.0 - Partly cloudy 10 - - - -
22/08:00pm 13.7 W 3 5 1023.0 - 0.0 - Partly cloudy 10 - - - -
22/07:30pm 14.5 WNW 3 4 1022.8 - 0.0 - Partly cloudy 10 - - - -
22/07:00pm 15.0 W 3 4 1022.9 - 0.0 - Partly cloudy 10 - - - -
22/06:30pm 15.6 W 4 5 1022.8 - 0.0 - Partly cloudy 10 - - - -
22/06:03pm 16.5 W 3 4 1022.6 - 0.0 - Cloudy 10 - - - -
22/06:00pm 16.6 W 3 4 1022.6 - 0.0 - Cloudy 10 - - - -
22/05:30pm 16.8 CALM 0 0 1022.3 - 0.0 - Partly cloudy 10 - - - -
22/05:00pm 17.8 ENE 3 5 1022.2 - 0.0 - Cloudy 10 - - - -
22/04:30pm 18.1 ENE 5 7 1022.0 - 0.0 - Partly cloudy 10 - - - -
22/04:27pm 18.2 ENE 5 7 1022.0 - 0.0 - Partly cloudy 10 - - - -
22/04:00pm 18.3 ENE 6 8 1021.9 - 0.0 - Partly cloudy 10 - - - -
22/03:30pm 18.5 ENE 8 11 1021.9 - 0.0 - Partly cloudy 10 - - - -
22/03:00pm 19.6 ENE 8 11 1021.9 - 0.0 - Mostly clear 10 - - - -
22/02:30pm 19.5 ENE 8 11 1022.1 - 0.0 - - 10 - - - -
22/02:00pm 20.0 NE 9 11 1022.3 - 0.0 - Partly cloudy 10 - - - -
22/01:30pm 19.8 NE 7 9 1022.4 - 0.0 - Partly cloudy 10 - - - -
22/01:00pm 20.1 NE 8 10 1022.4 - 0.0 - - 10 - - - -
22/12:30pm 20.6 ENE 7 9 1022.6 - 0.0 - - 10 - - - -
22/12:00pm 20.3 NE 7 8 1023.0 - 0.0 - Mostly clear 10 - - - -
22/11:30am 20.6 ENE 6 8 1023.5 - 0.0 - Partly cloudy 10 - - - -
22/11:00am 20.4 NE 5 8 1023.9 - 0.0 - Partly cloudy 10 - - - -
22/10:30am 20.2 NW 2 4 1024.3 - 0.0 - - 10 - - - -
22/10:00am 17.6 WSW 4 6 1024.5 - 0.0 - - 10 - - - -
22/09:30am 15.6 CALM 0 0 1024.7 - 0.0 - Partly cloudy 10 - - - -
22/09:08am 14.1 WSW 1 3 1024.7 - 0.0 - Partly cloudy 10 - - - -
22/09:00am 13.8 CALM 0 3 1024.7 - 0.0 - Cloudy 10 - - - -
22/08:53am 13.4 CALM 0 0 1024.7 - 0.0 - Partly cloudy 10 - - - -
22/08:30am 12.1 WSW 3 4 1024.6 - 0.0 - Partly cloudy 10 - - - -
22/08:00am 10.3 CALM 0 0 1024.5 - 0.0 - Partly cloudy 10 - - - -
22/07:30am 9.4 CALM 0 0 1024.0 - 0.0 - Partly cloudy 10 - - - -
22/07:19am 9.4 CALM 0 0 1023.9 - 0.0 - Partly cloudy 10 - - - -
22/07:00am 9.4 CALM 0 0 1023.6 - 0.0 - Partly cloudy 4 - - - -
22/06:30am 9.0 WSW 3 4 1023.6 - 0.0 - Partly cloudy 10 - - - -
22/06:00am 9.1 WSW 3 3 1023.3 - 0.0 - Mostly clear 6 - - - -
22/05:57am 9.0 WSW 3 4 1023.2 - 0.0 - Partly cloudy 5 - - - -
22/05:30am 9.0 CALM 0 0 1023.0 - 0.0 - Partly cloudy 10 - - - -
22/05:00am 8.9 WNW 1 3 1022.7 - 0.0 - - 10 - - - -
22/04:34am 9.1 WSW 2 3 1022.5 - 0.0 - - 10 - - - -
22/04:30am 9.1 WSW 2 3 1022.5 - 0.0 - Partly cloudy 10 - - - -
22/04:00am 8.8 WSW 1 5 1022.4 - 0.0 - Partly cloudy 1 - - - -
22/03:51am 8.7 CALM 0 0 1022.3 - 0.0 - - 4 - - - -
22/03:30am 10.0 WSW 1 3 1022.4 - 0.0 - - 10 - - - -
22/03:00am 9.9 WNW 4 6 1022.4 - 0.0 - - 10 - - - -
22/02:30am 9.3 CALM 0 2 1022.4 - 0.0 - Partly cloudy 10 - - - -
22/02:00am 9.9 WSW 1 4 1022.6 - 0.0 - - 10 - - - -
22/01:57am 9.6 CALM 0 0 1022.6 - 0.0 - - 10 - - - -
22/01:30am 10.2 WSW 1 3 1022.6 - 0.0 - - 3 - - - -
22/01:14am 9.6 CALM 0 0 1022.8 - 0.0 - - 5 - - - -
22/01:00am 10.5 CALM 0 0 1022.8 - 0.0 - - 10 - - - -
22/12:30am 10.7 WSW 3 5 1023.0 - 0.0 - - 10 - - - -
22/12:00am 10.5 W 4 4 1022.9 - 0.0 - - 10 - - - -
 
Date/Time
EST
Temp
°C
Wind Pressure Rain since
9am
mm
Weather Cloud Vis
km
Sea
Height
m
Swell
Dir  Spd
kts
Gust
kts
hPa Trend Height
m
Period
s
Dir
21/11:30pm 10.5 W 3 6 1022.9 - 0.0 - - 10 - - - -
21/11:25pm 10.7 CALM 0 5 1022.9 - 0.0 - - 10 - - - -
21/11:00pm 10.7 W 1 4 1022.8 - 0.0 - - 2 - - - -
21/10:58pm 10.7 W 2 4 1022.8 - 0.0 - - 5 - - - -
21/10:30pm 11.4 WNW 3 4 1022.8 - 0.0 - Partly cloudy 10 - - - -
21/10:00pm 11.1 W 4 5 1022.8 - 0.0 - - 10 - - - -
21/09:30pm 11.7 WSW 3 4 1022.9 - 0.0 - - 10 - - - -
21/09:00pm 11.7 WSW 3 4 1022.8 - 0.0 - - 10 - - - -
21/08:30pm 12.1 W 4 5 1022.5 - 0.0 - - 10 - - - -
21/08:00pm 12.6 W 7 8 1022.3 - 0.0 - - 10 - - - -
21/07:30pm 12.9 WSW 6 8 1021.9 - 0.0 - - 10 - - - -
21/07:00pm 13.2 W 6 6 1021.8 - 0.0 - - 10 - - - -
21/06:30pm 13.9 W 4 4 1021.5 - 0.0 - - 10 - - - -
21/06:00pm 14.4 SSW 5 6 1021.3 - 0.0 - Partly cloudy 10 - - - -
21/05:30pm 16.0 S 4 4 1020.9 - 0.0 - - 10 - - - -
21/05:00pm 17.3 SSE 5 7 1020.5 - 0.0 - - 10 - - - -
21/04:30pm 18.1 SSE 5 8 1020.3 - 0.0 - - 10 - - - -
21/04:00pm 18.4 SSE 6 9 1020.1 - 0.0 - Partly cloudy 10 - - - -
21/03:30pm 18.9 SSE 7 11 1019.8 - 0.0 - Partly cloudy 10 - - - -
21/03:00pm 19.0 SE 8 12 1019.6 - 0.0 - - 10 - - - -
21/02:30pm 19.4 SE 9 13 1019.4 - 0.0 - Partly cloudy 10 - - - -
21/02:00pm 20.7 E 10 14 1019.1 - 0.0 - Partly cloudy 10 - - - -
21/01:30pm 21.1 ESE 9 13 1019.1 - 0.0 - Partly cloudy 10 - - - -
21/01:00pm 21.3 E 9 13 1019.2 - 0.0 - Partly cloudy 10 - - - -
21/12:30pm 21.0 NNE 8 10 1019.3 - 0.0 - Partly cloudy 10 - - - -
21/12:00pm 21.0 ENE 6 11 1019.7 - 0.0 - Partly cloudy 10 - - - -
21/11:30am 21.4 ESE 5 8 1020.1 - 0.0 - - 10 - - - -
21/11:00am 20.6 S 6 8 1020.5 - 0.0 - - 10 - - - -
21/10:30am 19.9 SSW 3 6 1020.8 - 0.0 - - 10 - - - -
21/10:00am 20.5 E 3 4 1020.9 - 0.0 - - 10 - - - -
21/09:30am 18.7 NNE 4 5 1020.9 - 0.0 - - 10 - - - -
21/09:00am 18.4 ENE 3 4 1020.8 - 0.0 - - 10 - - - -
21/08:30am 16.2 ESE 3 6 1020.6 - 0.0 - - 10 - - - -
21/08:00am 14.1 CALM 0 0 1020.2 - 0.0 - - 10 - - - -
21/07:30am 12.1 S 2 4 1019.9 - 0.0 - - 10 - - - -
21/07:00am 13.3 W 8 12 1019.5 - 0.0 - - 10 - - - -
21/06:30am 12.0 CALM 0 4 1019.1 - 0.0 - - 10 - - - -
21/06:00am 12.6 SW 9 13 1018.7 - 0.0 - - 10 - - - -
21/05:30am 14.5 W 11 13 1018.4 - 0.0 - - 10 - - - -
21/05:11am 14.1 WNW 8 13 1018.2 - 0.0 - - 10 - - - -
21/05:00am 8.8 WSW 1 6 1018.2 - 0.0 - - 10 - - - -

Other Formats:

Comma delimited format used in spreadsheet applications
http://www.bom.gov.au/fwo/IDN60701/IDN60701.95748.axf

JavaScript Object Notation format (JSON) in row-major order
http://www.bom.gov.au/fwo/IDN60701/IDN60701.95748.json